sensor_id;sensor_type;location;lat;lon;timestamp;pressure;altitude;pressure_sealevel;temperature;humidity
4586;BME280;2305;50.118;8.952;2023-05-08T00:00:57;100888.56;;;17.19;100.00
4586;BME280;2305;50.118;8.952;2023-05-08T00:03:27;100887.06;;;17.17;100.00
4586;BME280;2305;50.118;8.952;2023-05-08T00:05:58;100894.34;;;17.15;100.00
4586;BME280;2305;50.118;8.952;2023-05-08T00:08:28;100888.66;;;17.10;100.00
4586;BME280;2305;50.118;8.952;2023-05-08T00:10:57;100886.59;;;17.04;100.00
4586;BME280;2305;50.118;8.952;2023-05-08T00:13:26;100892.38;;;16.99;100.00
4586;BME280;2305;50.118;8.952;2023-05-08T00:15:54;100889.00;;;16.97;100.00
4586;BME280;2305;50.118;8.952;2023-05-08T00:18:29;100883.47;;;16.91;100.00
4586;BME280;2305;50.118;8.952;2023-05-08T00:20:57;100891.78;;;16.88;100.00
4586;BME280;2305;50.118;8.952;2023-05-08T00:23:25;100887.59;;;16.85;100.00
4586;BME280;2305;50.118;8.952;2023-05-08T00:25:55;100888.41;;;16.86;100.00
4586;BME280;2305;50.118;8.952;2023-05-08T00:28:25;100894.03;;;16.83;100.00
4586;BME280;2305;50.118;8.952;2023-05-08T00:30:54;100892.19;;;16.83;100.00
4586;BME280;2305;50.118;8.952;2023-05-08T00:33:23;100896.03;;;16.81;100.00
4586;BME280;2305;50.118;8.952;2023-05-08T00:35:57;100894.31;;;16.80;100.00
4586;BME280;2305;50.118;8.952;2023-05-08T00:38:29;100886.50;;;16.78;100.00
4586;BME280;2305;50.118;8.952;2023-05-08T00:40:59;100895.31;;;16.79;100.00
4586;BME280;2305;50.118;8.952;2023-05-08T00:43:28;100889.00;;;16.80;100.00
4586;BME280;2305;50.118;8.952;2023-05-08T00:46:00;100887.66;;;16.76;100.00
4586;BME280;2305;50.118;8.952;2023-05-08T00:48:33;100888.09;;;16.71;100.00
4586;BME280;2305;50.118;8.952;2023-05-08T00:51:04;100885.44;;;16.71;100.00
4586;BME280;2305;50.118;8.952;2023-05-08T00:53:39;100885.44;;;16.71;100.00
4586;BME280;2305;50.118;8.952;2023-05-08T00:56:12;100889.69;;;16.64;100.00
4586;BME280;2305;50.118;8.952;2023-05-08T00:58:44;100892.09;;;16.58;100.00
4586;BME280;2305;50.118;8.952;2023-05-08T01:01:15;100895.75;;;16.57;100.00
4586;BME280;2305;50.118;8.952;2023-05-08T01:03:44;100900.78;;;16.60;100.00
4586;BME280;2305;50.118;8.952;2023-05-08T01:06:13;100898.13;;;16.60;100.00
4586;BME280;2305;50.118;8.952;2023-05-08T01:08:43;100895.59;;;16.58;100.00
4586;BME280;2305;50.118;8.952;2023-05-08T01:11:16;100898.41;;;16.57;100.00
4586;BME280;2305;50.118;8.952;2023-05-08T01:13:58;100899.94;;;16.59;100.00
4586;BME280;2305;50.118;8.952;2023-05-08T01:16:38;100909.03;;;16.57;100.00
4586;BME280;2305;50.118;8.952;2023-05-08T01:19:26;100904.72;;;16.56;100.00
4586;BME280;2305;50.118;8.952;2023-05-08T01:22:05;100915.34;;;16.56;100.00
4586;BME280;2305;50.118;8.952;2023-05-08T01:24:55;100910.72;;;16.58;100.00
4586;BME280;2305;50.118;8.952;2023-05-08T01:31:01;100918.28;;;16.62;100.00
4586;BME280;2305;50.118;8.952;2023-05-08T01:33:37;100916.28;;;16.64;100.00
4586;BME280;2305;50.118;8.952;2023-05-08T01:36:17;100915.44;;;16.64;100.00
4586;BME280;2305;50.118;8.952;2023-05-08T01:38:54;100915.75;;;16.61;100.00
4586;BME280;2305;50.118;8.952;2023-05-08T01:41:25;100920.41;;;16.59;100.00
4586;BME280;2305;50.118;8.952;2023-05-08T01:44:05;100925.00;;;16.57;100.00
4586;BME280;2305;50.118;8.952;2023-05-08T01:46:48;100913.56;;;16.56;100.00
4586;BME280;2305;50.118;8.952;2023-05-08T01:49:24;100916.03;;;16.58;100.00
4586;BME280;2305;50.118;8.952;2023-05-08T01:51:57;100918.88;;;16.56;100.00
4586;BME280;2305;50.118;8.952;2023-05-08T01:54:29;100919.84;;;16.55;100.00
4586;BME280;2305;50.118;8.952;2023-05-08T01:57:01;100924.63;;;16.52;100.00
4586;BME280;2305;50.118;8.952;2023-05-08T01:59:33;100930.09;;;16.50;100.00
4586;BME280;2305;50.118;8.952;2023-05-08T02:02:04;100929.25;;;16.50;100.00
4586;BME280;2305;50.118;8.952;2023-05-08T02:04:34;100927.56;;;16.49;100.00
4586;BME280;2305;50.118;8.952;2023-05-08T02:07:06;100926.75;;;16.48;100.00
4586;BME280;2305;50.118;8.952;2023-05-08T02:09:38;100929.56;;;16.47;100.00
4586;BME280;2305;50.118;8.952;2023-05-08T02:12:09;100937.53;;;16.47;100.00
4586;BME280;2305;50.118;8.952;2023-05-08T02:14:41;100930.38;;;16.47;100.00
4586;BME280;2305;50.118;8.952;2023-05-08T02:17:14;100943.00;;;16.45;100.00
4586;BME280;2305;50.118;8.952;2023-05-08T02:19:48;100943.13;;;16.44;100.00
4586;BME280;2305;50.118;8.952;2023-05-08T02:22:23;100949.63;;;16.41;100.00
4586;BME280;2305;50.118;8.952;2023-05-08T02:24:53;100939.13;;;16.40;100.00
4586;BME280;2305;50.118;8.952;2023-05-08T02:27:26;100950.56;;;16.40;100.00
4586;BME280;2305;50.118;8.952;2023-05-08T02:29:56;100948.09;;;16.39;100.00
4586;BME280;2305;50.118;8.952;2023-05-08T02:32:25;100950.00;;;16.37;100.00
4586;BME280;2305;50.118;8.952;2023-05-08T02:34:57;100952.66;;;16.37;100.00
4586;BME280;2305;50.118;8.952;2023-05-08T02:37:31;100954.38;;;16.38;100.00
4586;BME280;2305;50.118;8.952;2023-05-08T02:40:03;100953.63;;;16.36;100.00
4586;BME280;2305;50.118;8.952;2023-05-08T02:42:34;100962.47;;;16.36;100.00
4586;BME280;2305;50.118;8.952;2023-05-08T02:45:06;100956.47;;;16.34;100.00
4586;BME280;2305;50.118;8.952;2023-05-08T02:47:42;100953.41;;;16.29;100.00
4586;BME280;2305;50.118;8.952;2023-05-08T02:50:19;100957.19;;;16.27;100.00
4586;BME280;2305;50.118;8.952;2023-05-08T02:52:59;100959.88;;;16.17;100.00
4586;BME280;2305;50.118;8.952;2023-05-08T02:55:34;100955.28;;;16.10;100.00
4586;BME280;2305;50.118;8.952;2023-05-08T02:58:13;100952.22;;;16.05;100.00
4586;BME280;2305;50.118;8.952;2023-05-08T03:00:48;100957.81;;;16.02;100.00
4586;BME280;2305;50.118;8.952;2023-05-08T03:03:25;100967.06;;;15.98;100.00
4586;BME280;2305;50.118;8.952;2023-05-08T03:05:59;100967.06;;;15.98;100.00
4586;BME280;2305;50.118;8.952;2023-05-08T03:08:31;100959.66;;;15.92;100.00
4586;BME280;2305;50.118;8.952;2023-05-08T03:11:06;100971.00;;;15.94;100.00
4586;BME280;2305;50.118;8.952;2023-05-08T03:13:41;100971.97;;;15.93;100.00
4586;BME280;2305;50.118;8.952;2023-05-08T03:16:16;100967.09;;;15.88;100.00
4586;BME280;2305;50.118;8.952;2023-05-08T03:18:51;100965.16;;;15.81;100.00
4586;BME280;2305;50.118;8.952;2023-05-08T03:21:23;100970.47;;;15.81;100.00
4586;BME280;2305;50.118;8.952;2023-05-08T03:23:57;100965.84;;;15.83;100.00
4586;BME280;2305;50.118;8.952;2023-05-08T03:26:27;100962.50;;;15.81;100.00
4586;BME280;2305;50.118;8.952;2023-05-08T03:28:58;100970.75;;;15.78;100.00
4586;BME280;2305;50.118;8.952;2023-05-08T03:31:32;100967.66;;;15.73;100.00
4586;BME280;2305;50.118;8.952;2023-05-08T03:34:03;100967.66;;;15.73;100.00
4586;BME280;2305;50.118;8.952;2023-05-08T03:36:35;100967.09;;;15.69;100.00
4586;BME280;2305;50.118;8.952;2023-05-08T03:39:04;100966.28;;;15.69;100.00
4586;BME280;2305;50.118;8.952;2023-05-08T03:41:34;100970.19;;;15.65;100.00
4586;BME280;2305;50.118;8.952;2023-05-08T03:44:03;100967.72;;;15.63;100.00
4586;BME280;2305;50.118;8.952;2023-05-08T03:46:34;100962.41;;;15.63;100.00
4586;BME280;2305;50.118;8.952;2023-05-08T03:49:03;100958.03;;;15.62;100.00
4586;BME280;2305;50.118;8.952;2023-05-08T03:51:38;100964.06;;;15.64;100.00
4586;BME280;2305;50.118;8.952;2023-05-08T03:54:21;100957.63;;;15.67;100.00
4586;BME280;2305;50.118;8.952;2023-05-08T03:56:58;100959.44;;;15.66;100.00
4586;BME280;2305;50.118;8.952;2023-05-08T03:59:33;100964.88;;;15.65;100.00
4586;BME280;2305;50.118;8.952;2023-05-08T04:02:17;100966.84;;;15.63;100.00
4586;BME280;2305;50.118;8.952;2023-05-08T04:04:54;100970.38;;;15.63;100.00
4586;BME280;2305;50.118;8.952;2023-05-08T04:07:31;100971.31;;;15.62;100.00
4586;BME280;2305;50.118;8.952;2023-05-08T04:10:08;100978.72;;;15.59;100.00
4586;BME280;2305;50.118;8.952;2023-05-08T04:12:45;100976.06;;;15.59;100.00
4586;BME280;2305;50.118;8.952;2023-05-08T04:15:28;100977.91;;;15.58;100.00
4586;BME280;2305;50.118;8.952;2023-05-08T04:17:59;100972.84;;;15.55;100.00
4586;BME280;2305;50.118;8.952;2023-05-08T04:20:33;100981.00;;;15.54;100.00
4586;BME280;2305;50.118;8.952;2023-05-08T04:23:03;100985.44;;;15.53;100.00
4586;BME280;2305;50.118;8.952;2023-05-08T04:25:35;100989.66;;;15.56;100.00
4586;BME280;2305;50.118;8.952;2023-05-08T04:28:08;100991.31;;;15.57;100.00
4586;BME280;2305;50.118;8.952;2023-05-08T04:30:38;100994.66;;;15.59;100.00
4586;BME280;2305;50.118;8.952;2023-05-08T04:33:08;100994.53;;;15.60;100.00
4586;BME280;2305;50.118;8.952;2023-05-08T04:35:37;100999.84;;;15.60;100.00
4586;BME280;2305;50.118;8.952;2023-05-08T04:38:09;101003.34;;;15.61;100.00
4586;BME280;2305;50.118;8.952;2023-05-08T04:40:38;100999.59;;;15.63;100.00
4586;BME280;2305;50.118;8.952;2023-05-08T04:43:08;101007.56;;;15.63;100.00
4586;BME280;2305;50.118;8.952;2023-05-08T04:45:37;101002.38;;;15.62;100.00
4586;BME280;2305;50.118;8.952;2023-05-08T04:48:06;101005.59;;;15.65;100.00
4586;BME280;2305;50.118;8.952;2023-05-08T04:50:35;101010.59;;;15.68;100.00
4586;BME280;2305;50.118;8.952;2023-05-08T04:53:03;101002.50;;;15.70;100.00
4586;BME280;2305;50.118;8.952;2023-05-08T04:55:36;101009.06;;;15.66;100.00
4586;BME280;2305;50.118;8.952;2023-05-08T04:58:06;101007.81;;;15.70;100.00
4586;BME280;2305;50.118;8.952;2023-05-08T05:00:39;101011.16;;;15.72;100.00
4586;BME280;2305;50.118;8.952;2023-05-08T05:03:08;101021.53;;;15.75;100.00
4586;BME280;2305;50.118;8.952;2023-05-08T05:05:37;101023.91;;;15.68;100.00
4586;BME280;2305;50.118;8.952;2023-05-08T05:08:12;101023.91;;;15.68;100.00
4586;BME280;2305;50.118;8.952;2023-05-08T05:10:41;101025.56;;;15.69;100.00
4586;BME280;2305;50.118;8.952;2023-05-08T05:13:14;101020.97;;;15.71;100.00
4586;BME280;2305;50.118;8.952;2023-05-08T05:15:42;101020.00;;;15.72;100.00
4586;BME280;2305;50.118;8.952;2023-05-08T05:18:14;101013.69;;;15.73;100.00
4586;BME280;2305;50.118;8.952;2023-05-08T05:20:45;101019.88;;;15.74;100.00
4586;BME280;2305;50.118;8.952;2023-05-08T05:23:14;101017.91;;;15.76;100.00
4586;BME280;2305;50.118;8.952;2023-05-08T05:25:44;101018.44;;;15.79;100.00
4586;BME280;2305;50.118;8.952;2023-05-08T05:28:12;101027.09;;;15.81;100.00
4586;BME280;2305;50.118;8.952;2023-05-08T05:31:06;101024.31;;;15.83;100.00
4586;BME280;2305;50.118;8.952;2023-05-08T05:33:36;101027.66;;;15.85;100.00
4586;BME280;2305;50.118;8.952;2023-05-08T05:36:07;101039.16;;;15.85;100.00
4586;BME280;2305;50.118;8.952;2023-05-08T05:38:35;101040.28;;;15.83;100.00
4586;BME280;2305;50.118;8.952;2023-05-08T05:41:07;101045.59;;;15.83;100.00
4586;BME280;2305;50.118;8.952;2023-05-08T05:43:40;101043.63;;;15.85;100.00
4586;BME280;2305;50.118;8.952;2023-05-08T05:46:13;101045.84;;;15.89;100.00
4586;BME280;2305;50.118;8.952;2023-05-08T05:48:45;101050.03;;;15.92;100.00
4586;BME280;2305;50.118;8.952;2023-05-08T05:51:18;101057.03;;;15.93;100.00
4586;BME280;2305;50.118;8.952;2023-05-08T05:53:48;101045.72;;;15.91;100.00
4586;BME280;2305;50.118;8.952;2023-05-08T05:56:17;101052.16;;;15.88;100.00
4586;BME280;2305;50.118;8.952;2023-05-08T05:58:50;101057.59;;;15.87;100.00
4586;BME280;2305;50.118;8.952;2023-05-08T06:01:18;101056.47;;;15.89;100.00
4586;BME280;2305;50.118;8.952;2023-05-08T06:03:48;101052.00;;;15.90;100.00
4586;BME280;2305;50.118;8.952;2023-05-08T06:06:17;101060.00;;;15.90;100.00
4586;BME280;2305;50.118;8.952;2023-05-08T06:08:48;101048.25;;;15.83;100.00
4586;BME280;2305;50.118;8.952;2023-05-08T06:11:18;101053.81;;;15.80;100.00
4586;BME280;2305;50.118;8.952;2023-05-08T06:13:50;101053.44;;;15.84;100.00
4586;BME280;2305;50.118;8.952;2023-05-08T06:16:22;101057.31;;;15.90;100.00
4586;BME280;2305;50.118;8.952;2023-05-08T06:18:51;101070.63;;;15.90;100.00
4586;BME280;2305;50.118;8.952;2023-05-08T06:21:19;101060.41;;;15.95;100.00
4586;BME280;2305;50.118;8.952;2023-05-08T06:23:48;101066.41;;;15.97;100.00
4586;BME280;2305;50.118;8.952;2023-05-08T06:26:18;101060.13;;;15.98;100.00
4586;BME280;2305;50.118;8.952;2023-05-08T06:28:49;101070.47;;;16.01;100.00
4586;BME280;2305;50.118;8.952;2023-05-08T06:31:18;101075.50;;;16.04;100.00
4586;BME280;2305;50.118;8.952;2023-05-08T06:33:47;101073.53;;;16.06;100.00
4586;BME280;2305;50.118;8.952;2023-05-08T06:36:15;101077.75;;;16.08;100.00
4586;BME280;2305;50.118;8.952;2023-05-08T06:38:44;101070.44;;;16.10;100.00
4586;BME280;2305;50.118;8.952;2023-05-08T06:41:12;101073.78;;;16.12;100.00
4586;BME280;2305;50.118;8.952;2023-05-08T06:43:42;101077.75;;;16.08;100.00
4586;BME280;2305;50.118;8.952;2023-05-08T06:46:14;101077.59;;;16.10;100.00
4586;BME280;2305;50.118;8.952;2023-05-08T06:48:43;101076.47;;;16.12;100.00
4586;BME280;2305;50.118;8.952;2023-05-08T06:51:12;101074.66;;;16.13;100.00
4586;BME280;2305;50.118;8.952;2023-05-08T06:53:40;101065.44;;;16.17;100.00
4586;BME280;2305;50.118;8.952;2023-05-08T06:56:09;101073.09;;;16.20;100.00
4586;BME280;2305;50.118;8.952;2023-05-08T06:58:40;101070.88;;;16.25;100.00
4586;BME280;2305;50.118;8.952;2023-05-08T07:01:18;101070.44;;;16.29;100.00
4586;BME280;2305;50.118;8.952;2023-05-08T07:03:46;101076.56;;;16.30;100.00
4586;BME280;2305;50.118;8.952;2023-05-08T07:06:15;101075.63;;;16.31;100.00
4586;BME280;2305;50.118;8.952;2023-05-08T07:08:44;101069.00;;;16.35;100.00
4586;BME280;2305;50.118;8.952;2023-05-08T07:11:12;101076.59;;;16.39;100.00
4586;BME280;2305;50.118;8.952;2023-05-08T07:13:40;101076.16;;;16.44;100.00
4586;BME280;2305;50.118;8.952;2023-05-08T07:16:09;101077.69;;;16.46;100.00
4586;BME280;2305;50.118;8.952;2023-05-08T07:18:40;101074.59;;;16.51;100.00
4586;BME280;2305;50.118;8.952;2023-05-08T07:21:08;101073.88;;;16.58;100.00
4586;BME280;2305;50.118;8.952;2023-05-08T07:23:37;101081.28;;;16.64;100.00
4586;BME280;2305;50.118;8.952;2023-05-08T07:26:08;101087.59;;;16.63;100.00
4586;BME280;2305;50.118;8.952;2023-05-08T07:28:37;101088.84;;;16.69;100.00
4586;BME280;2305;50.118;8.952;2023-05-08T07:31:05;101086.97;;;16.79;100.00
4586;BME280;2305;50.118;8.952;2023-05-08T07:33:34;101081.06;;;16.85;100.00
4586;BME280;2305;50.118;8.952;2023-05-08T07:36:07;101095.47;;;16.92;100.00
4586;BME280;2305;50.118;8.952;2023-05-08T07:38:35;101087.88;;;16.97;100.00
4586;BME280;2305;50.118;8.952;2023-05-08T07:41:03;101087.75;;;16.98;100.00
4586;BME280;2305;50.118;8.952;2023-05-08T07:43:32;101086.91;;;16.98;100.00
4586;BME280;2305;50.118;8.952;2023-05-08T07:46:01;101089.88;;;16.95;100.00
4586;BME280;2305;50.118;8.952;2023-05-08T07:48:32;101091.28;;;16.89;100.00
4586;BME280;2305;50.118;8.952;2023-05-08T07:51:01;101088.91;;;16.86;100.00
4586;BME280;2305;50.118;8.952;2023-05-08T07:53:31;101090.91;;;16.84;100.00
4586;BME280;2305;50.118;8.952;2023-05-08T07:56:00;101091.03;;;16.83;100.00
4586;BME280;2305;50.118;8.952;2023-05-08T07:58:29;101101.69;;;16.83;100.00
4586;BME280;2305;50.118;8.952;2023-05-08T08:01:01;101100.25;;;16.88;100.00
4586;BME280;2305;50.118;8.952;2023-05-08T08:03:31;101093.13;;;16.89;100.00
4586;BME280;2305;50.118;8.952;2023-05-08T08:06:00;101096.75;;;16.88;100.00
4586;BME280;2305;50.118;8.952;2023-05-08T08:08:30;101096.59;;;16.89;100.00
4586;BME280;2305;50.118;8.952;2023-05-08T08:10:58;101092.00;;;16.91;100.00
4586;BME280;2305;50.118;8.952;2023-05-08T08:13:30;101093.34;;;16.95;100.00
4586;BME280;2305;50.118;8.952;2023-05-08T08:16:00;101094.56;;;17.01;100.00
4586;BME280;2305;50.118;8.952;2023-05-08T08:18:32;101099.50;;;17.05;100.00
4586;BME280;2305;50.118;8.952;2023-05-08T08:21:04;101094.84;;;17.07;100.00
4586;BME280;2305;50.118;8.952;2023-05-08T08:23:35;101091.75;;;17.12;100.00
4586;BME280;2305;50.118;8.952;2023-05-08T08:26:03;101092.97;;;17.17;100.00
4586;BME280;2305;50.118;8.952;2023-05-08T08:28:32;101091.06;;;17.10;100.00
4586;BME280;2305;50.118;8.952;2023-05-08T08:31:02;101091.97;;;17.18;100.00
4586;BME280;2305;50.118;8.952;2023-05-08T08:33:37;101092.59;;;17.30;100.00
4586;BME280;2305;50.118;8.952;2023-05-08T08:36:11;101092.00;;;17.36;100.00
4586;BME280;2305;50.118;8.952;2023-05-08T08:38:41;101088.78;;;17.42;100.00
4586;BME280;2305;50.118;8.952;2023-05-08T08:41:12;101083.47;;;17.42;100.00
4586;BME280;2305;50.118;8.952;2023-05-08T08:43:44;101085.38;;;17.49;100.00
4586;BME280;2305;50.118;8.952;2023-05-08T08:46:17;101084.63;;;17.74;100.00
4586;BME280;2305;50.118;8.952;2023-05-08T08:48:46;101083.81;;;17.74;100.00
4586;BME280;2305;50.118;8.952;2023-05-08T08:51:23;101090.19;;;17.98;100.00
4586;BME280;2305;50.118;8.952;2023-05-08T08:54:01;101086.00;;;18.13;100.00
4586;BME280;2305;50.118;8.952;2023-05-08T08:56:35;101093.41;;;18.02;100.00
4586;BME280;2305;50.118;8.952;2023-05-08T08:59:08;101090.09;;;18.08;100.00
4586;BME280;2305;50.118;8.952;2023-05-08T09:01:43;101094.19;;;18.20;100.00
4586;BME280;2305;50.118;8.952;2023-05-08T09:04:15;101095.53;;;18.16;100.00
4586;BME280;2305;50.118;8.952;2023-05-08T09:06:48;101093.44;;;18.27;100.00
4586;BME280;2305;50.118;8.952;2023-05-08T09:09:21;101092.84;;;18.33;100.00
4586;BME280;2305;50.118;8.952;2023-05-08T09:11:50;101099.00;;;18.16;100.00
4586;BME280;2305;50.118;8.952;2023-05-08T09:14:19;101096.19;;;18.18;100.00
4586;BME280;2305;50.118;8.952;2023-05-08T09:16:49;101101.72;;;18.24;100.00
4586;BME280;2305;50.118;8.952;2023-05-08T09:19:20;101097.63;;;18.30;100.00
4586;BME280;2305;50.118;8.952;2023-05-08T09:21:54;101103.06;;;18.38;100.00
4586;BME280;2305;50.118;8.952;2023-05-08T09:24:24;101093.91;;;18.40;100.00
4586;BME280;2305;50.118;8.952;2023-05-08T09:26:56;101106.44;;;18.48;100.00
4586;BME280;2305;50.118;8.952;2023-05-08T09:29:24;101097.28;;;18.50;100.00
4586;BME280;2305;50.118;8.952;2023-05-08T09:31:53;101097.28;;;18.50;100.00
4586;BME280;2305;50.118;8.952;2023-05-08T09:34:26;101095.25;;;18.44;100.00
4586;BME280;2305;50.118;8.952;2023-05-08T09:36:55;101103.53;;;18.33;100.00
4586;BME280;2305;50.118;8.952;2023-05-08T09:39:25;101095.34;;;18.35;100.00
4586;BME280;2305;50.118;8.952;2023-05-08T09:41:57;101103.25;;;18.44;100.00
4586;BME280;2305;50.118;8.952;2023-05-08T09:44:27;101108.44;;;18.46;100.00
4586;BME280;2305;50.118;8.952;2023-05-08T09:47:10;101115.31;;;18.48;100.00
4586;BME280;2305;50.118;8.952;2023-05-08T09:49:39;101115.13;;;18.50;100.00
4586;BME280;2305;50.118;8.952;2023-05-08T09:52:23;101113.31;;;18.50;100.00
4586;BME280;2305;50.118;8.952;2023-05-08T09:55:00;101118.19;;;18.55;100.00
4586;BME280;2305;50.118;8.952;2023-05-08T09:57:30;101114.69;;;18.54;100.00
4586;BME280;2305;50.118;8.952;2023-05-08T10:00:04;101114.50;;;18.56;100.00
4586;BME280;2305;50.118;8.952;2023-05-08T10:02:39;101122.22;;;18.59;100.00
4586;BME280;2305;50.118;8.952;2023-05-08T10:05:23;101123.03;;;18.59;100.00
4586;BME280;2305;50.118;8.952;2023-05-08T10:07:52;101120.06;;;18.62;100.00
4586;BME280;2305;50.118;8.952;2023-05-08T10:10:25;101130.28;;;18.67;100.00
4586;BME280;2305;50.118;8.952;2023-05-08T10:12:55;101128.63;;;18.66;100.00
4586;BME280;2305;50.118;8.952;2023-05-08T10:15:27;101125.63;;;18.69;100.00
4586;BME280;2305;50.118;8.952;2023-05-08T10:18:02;101126.13;;;18.72;100.00
4586;BME280;2305;50.118;8.952;2023-05-08T10:20:39;101129.81;;;18.71;100.00
4586;BME280;2305;50.118;8.952;2023-05-08T10:23:14;101125.28;;;18.72;100.00
4586;BME280;2305;50.118;8.952;2023-05-08T10:25:45;101128.81;;;18.72;100.00
4586;BME280;2305;50.118;8.952;2023-05-08T10:28:15;101132.34;;;18.73;100.00
4586;BME280;2305;50.118;8.952;2023-05-08T10:30:47;101132.84;;;18.76;100.00
4586;BME280;2305;50.118;8.952;2023-05-08T10:33:20;101132.66;;;18.77;100.00
4586;BME280;2305;50.118;8.952;2023-05-08T10:35:57;101129.97;;;18.70;100.00
4586;BME280;2305;50.118;8.952;2023-05-08T10:38:26;101122.63;;;18.72;100.00
4586;BME280;2305;50.118;8.952;2023-05-08T10:41:00;101124.84;;;18.76;100.00
4586;BME280;2305;50.118;8.952;2023-05-08T10:43:29;101121.84;;;18.79;100.00
4586;BME280;2305;50.118;8.952;2023-05-08T10:46:01;101122.69;;;18.80;100.00
4586;BME280;2305;50.118;8.952;2023-05-08T10:48:44;101111.53;;;18.84;100.00
4586;BME280;2305;50.118;8.952;2023-05-08T10:51:22;101104.72;;;18.89;100.00
4586;BME280;2305;50.118;8.952;2023-05-08T10:53:58;101098.25;;;19.00;100.00
4586;BME280;2305;50.118;8.952;2023-05-08T10:56:30;101103.78;;;19.06;100.00
4586;BME280;2305;50.118;8.952;2023-05-08T10:58:58;101095.97;;;19.13;100.00
4586;BME280;2305;50.118;8.952;2023-05-08T11:01:27;101100.22;;;19.23;100.00
4586;BME280;2305;50.118;8.952;2023-05-08T11:03:58;101096.94;;;19.37;100.00
4586;BME280;2305;50.118;8.952;2023-05-08T11:06:45;101099.28;;;19.48;100.00
4586;BME280;2305;50.118;8.952;2023-05-08T11:09:21;101088.81;;;19.55;100.00
4586;BME280;2305;50.118;8.952;2023-05-08T11:12:06;101091.16;;;19.66;100.00
4586;BME280;2305;50.118;8.952;2023-05-08T11:14:38;101088.16;;;19.69;100.00
4586;BME280;2305;50.118;8.952;2023-05-08T11:17:10;101089.16;;;19.76;100.00
4586;BME280;2305;50.118;8.952;2023-05-08T11:19:54;101091.50;;;19.87;100.00
4586;BME280;2305;50.118;8.952;2023-05-08T11:22:24;101084.69;;;20.00;100.00
4586;BME280;2305;50.118;8.952;2023-05-08T11:24:59;101084.72;;;20.16;100.00
4586;BME280;2305;50.118;8.952;2023-05-08T11:30:52;101078.44;;;20.64;100.00
4586;BME280;2305;50.118;8.952;2023-05-08T11:33:21;101071.69;;;20.84;100.00
4586;BME280;2305;50.118;8.952;2023-05-08T11:35:52;101072.84;;;20.97;100.00
4586;BME280;2305;50.118;8.952;2023-05-08T11:38:26;101070.66;;;21.01;100.00
4586;BME280;2305;50.118;8.952;2023-05-08T11:41:02;101074.41;;;21.22;100.00
4586;BME280;2305;50.118;8.952;2023-05-08T11:43:44;101069.94;;;21.45;100.00
4586;BME280;2305;50.118;8.952;2023-05-08T11:46:19;101072.50;;;21.61;100.00
4586;BME280;2305;50.118;8.952;2023-05-08T11:48:48;101074.16;;;21.62;100.00
4586;BME280;2305;50.118;8.952;2023-05-08T11:51:29;101075.50;;;21.36;100.00
4586;BME280;2305;50.118;8.952;2023-05-08T11:53:58;101066.63;;;21.05;100.00
4586;BME280;2305;50.118;8.952;2023-05-08T11:56:28;101071.28;;;21.11;100.00
4586;BME280;2305;50.118;8.952;2023-05-08T11:59:06;101071.00;;;21.36;100.00
4586;BME280;2305;50.118;8.952;2023-05-08T12:01:35;101060.91;;;21.38;100.00
4586;BME280;2305;50.118;8.952;2023-05-08T12:04:05;101058.34;;;21.53;100.00
4586;BME280;2305;50.118;8.952;2023-05-08T12:06:36;101061.28;;;21.66;100.00
4586;BME280;2305;50.118;8.952;2023-05-08T12:09:09;101072.56;;;21.84;100.00
4586;BME280;2305;50.118;8.952;2023-05-08T12:11:38;101062.94;;;21.89;100.00
4586;BME280;2305;50.118;8.952;2023-05-08T12:14:16;101065.94;;;21.94;100.00
4586;BME280;2305;50.118;8.952;2023-05-08T12:16:44;101066.75;;;21.95;100.00
4586;BME280;2305;50.118;8.952;2023-05-08T12:19:12;101066.47;;;21.90;100.00
4586;BME280;2305;50.118;8.952;2023-05-08T12:21:44;101065.94;;;21.94;100.00
4586;BME280;2305;50.118;8.952;2023-05-08T12:24:19;101070.28;;;21.95;100.00
4586;BME280;2305;50.118;8.952;2023-05-08T12:26:52;101070.75;;;21.76;100.00
4586;BME280;2305;50.118;8.952;2023-05-08T12:29:24;101074.41;;;21.83;100.00
4586;BME280;2305;50.118;8.952;2023-05-08T12:31:52;101068.06;;;21.76;100.00
4586;BME280;2305;50.118;8.952;2023-05-08T12:34:21;101068.28;;;21.75;100.00
4586;BME280;2305;50.118;8.952;2023-05-08T12:37:00;101069.66;;;21.63;100.00
4586;BME280;2305;50.118;8.952;2023-05-08T12:39:34;101071.78;;;21.75;100.00
4586;BME280;2305;50.118;8.952;2023-05-08T12:42:03;101064.94;;;21.42;100.00
4586;BME280;2305;50.118;8.952;2023-05-08T12:44:33;101062.69;;;21.54;100.00
4586;BME280;2305;50.118;8.952;2023-05-08T12:47:04;101060.03;;;21.76;100.00
4586;BME280;2305;50.118;8.952;2023-05-08T12:49:33;101057.44;;;22.05;100.00
4586;BME280;2305;50.118;8.952;2023-05-08T12:52:07;101059.00;;;22.22;100.00
4586;BME280;2305;50.118;8.952;2023-05-08T12:54:37;101068.06;;;22.36;100.00
4586;BME280;2305;50.118;8.952;2023-05-08T12:57:13;101067.50;;;22.26;100.00
4586;BME280;2305;50.118;8.952;2023-05-08T12:59:44;101057.66;;;22.18;100.00
4586;BME280;2305;50.118;8.952;2023-05-08T13:02:16;101058.53;;;22.33;100.00
4586;BME280;2305;50.118;8.952;2023-05-08T13:04:52;101060.72;;;22.52;100.00
4586;BME280;2305;50.118;8.952;2023-05-08T13:07:23;101047.41;;;22.73;100.00
4586;BME280;2305;50.118;8.952;2023-05-08T13:09:56;101050.34;;;23.07;100.00
4586;BME280;2305;50.118;8.952;2023-05-08T13:12:26;101045.53;;;23.17;100.00
4586;BME280;2305;50.118;8.952;2023-05-08T13:14:56;101040.47;;;23.43;100.00
4586;BME280;2305;50.118;8.952;2023-05-08T13:17:39;101039.47;;;23.65;100.00
4586;BME280;2305;50.118;8.952;2023-05-08T13:20:13;101034.97;;;23.72;100.00
4586;BME280;2305;50.118;8.952;2023-05-08T13:22:47;101037.94;;;23.77;100.00
4586;BME280;2305;50.118;8.952;2023-05-08T13:25:16;101035.59;;;23.89;100.00
4586;BME280;2305;50.118;8.952;2023-05-08T13:27:48;101031.41;;;23.86;100.00
4586;BME280;2305;50.118;8.952;2023-05-08T13:30:28;101033.34;;;23.92;100.00
4586;BME280;2305;50.118;8.952;2023-05-08T13:33:01;101020.31;;;23.75;100.00